Time;durP1;ratioP1;P1;durP2;ratioP2;P2;SDS_P1;SDS_P2;PMS_P1;PMS_P2;Temp;Humidity;BMP_temperature;BMP_pressure;BME280_temperature;BME280_humidity;BME280_pressure;Samples;Min_cycle;Max_cycle;Signal;HPM_P1;HPM_P2
2023/03/23 00:00:51;;;;;;;5.00;2.90;;;;;;;;;;5005259;28;20285;-75
2023/03/23 00:03:18;;;;;;;4.00;2.27;;;;;;;;;;5021071;28;20352;-75
2023/03/23 00:05:50;;;;;;;3.57;2.30;;;;;;;;;;5006322;28;20182;-74
2023/03/23 00:08:17;;;;;;;2.23;2.00;;;;;;;;;;5026017;28;20596;-76
2023/03/23 00:10:43;;;;;;;2.30;1.87;;;;;;;;;;4991820;28;20638;-75
2023/03/23 00:13:11;;;;;;;4.63;1.90;;;;;;;;;;5024376;28;20229;-75
2023/03/23 00:15:41;;;;;;;7.10;3.83;;;;;;;;;;5022798;28;20258;-75
2023/03/23 00:18:07;;;;;;;2.47;2.00;;;;;;;;;;5007485;28;20555;-75
2023/03/23 00:20:40;;;;;;;2.57;2.03;;;;;;;;;;5004729;28;20225;-76
2023/03/23 00:23:07;;;;;;;2.77;1.97;;;;;;;;;;5024106;28;20184;-74
2023/03/23 00:25:33;;;;;;;3.70;2.10;;;;;;;;;;5003263;28;21286;-76
2023/03/23 00:28:00;;;;;;;3.90;2.20;;;;;;;;;;5026591;28;20253;-77
2023/03/23 00:30:26;;;;;;;3.40;2.13;;;;;;;;;;5026374;28;20202;-74
2023/03/23 00:32:52;;;;;;;2.83;1.93;;;;;;;;;;5011549;28;20665;-74
2023/03/23 00:35:19;;;;;;;4.00;2.40;;;;;;;;;;5024083;28;20175;-75
2023/03/23 00:37:45;;;;;;;2.30;1.90;;;;;;;;;;5022535;28;20592;-75
2023/03/23 00:40:12;;;;;;;2.70;1.93;;;;;;;;;;5024300;28;20268;-75
2023/03/23 00:42:38;;;;;;;2.93;1.90;;;;;;;;;;5018710;28;20260;-75
2023/03/23 00:45:10;;;;;;;7.63;3.20;;;;;;;;;;5008093;28;20186;-76
2023/03/23 00:47:41;;;;;;;2.70;1.93;;;;;;;;;;5007411;28;20179;-73
2023/03/23 00:50:08;;;;;;;2.07;1.83;;;;;;;;;;5018759;28;20242;-75
2023/03/23 00:52:34;;;;;;;1.90;1.70;;;;;;;;;;5025308;28;20252;-75
2023/03/23 00:55:00;;;;;;;2.43;1.80;;;;;;;;;;5023517;28;20178;-75
2023/03/23 00:57:26;;;;;;;3.00;2.10;;;;;;;;;;5021994;28;20306;-74
2023/03/23 00:59:52;;;;;;;3.10;2.00;;;;;;;;;;5025515;28;20815;-75
2023/03/23 01:02:19;;;;;;;2.73;1.93;;;;;;;;;;5019872;28;20206;-73
2023/03/23 01:04:46;;;;;;;4.93;2.63;;;;;;;;;;5003286;28;20179;-74
2023/03/23 01:07:12;;;;;;;4.37;2.20;;;;;;;;;;5020592;28;20191;-72
2023/03/23 01:09:39;;;;;;;3.77;2.20;;;;;;;;;;4989293;28;20240;-75
2023/03/23 01:12:06;;;;;;;2.63;2.00;;;;;;;;;;4989555;28;20246;-74
2023/03/23 01:14:32;;;;;;;5.07;2.13;;;;;;;;;;5023489;28;20849;-74
2023/03/23 01:16:58;;;;;;;6.77;3.90;;;;;;;;;;5027437;28;20174;-74
2023/03/23 01:19:25;;;;;;;4.77;2.80;;;;;;;;;;5004700;28;20209;-77
2023/03/23 01:21:51;;;;;;;3.97;2.67;;;;;;;;;;5021739;28;20174;-77
2023/03/23 01:24:17;;;;;;;5.67;3.33;;;;;;;;;;5024786;28;20182;-77
2023/03/23 01:26:43;;;;;;;4.13;2.90;;;;;;;;;;5023010;28;20174;-79
2023/03/23 01:29:09;;;;;;;6.20;3.40;;;;;;;;;;5025758;28;20283;-76
2023/03/23 01:31:36;;;;;;;3.50;2.30;;;;;;;;;;5019147;28;20187;-78
2023/03/23 01:34:04;;;;;;;5.03;2.77;;;;;;;;;;5006416;28;20793;-77
2023/03/23 01:36:32;;;;;;;4.63;2.77;;;;;;;;;;5020365;28;20182;-78
2023/03/23 01:39:03;;;;;;;3.93;2.67;;;;;;;;;;5008994;28;20218;-79
2023/03/23 01:41:29;;;;;;;5.63;3.00;;;;;;;;;;4991005;28;20989;-77
2023/03/23 01:44:29;;;;;;;5.70;3.13;;;;;;;;;;5009789;28;20186;-77
2023/03/23 01:47:04;;;;;;;2.47;1.93;;;;;;;;;;5009560;28;20257;-77
2023/03/23 01:49:33;;;;;;;3.57;1.87;;;;;;;;;;4999879;28;20225;-77
2023/03/23 01:52:01;;;;;;;3.00;1.80;;;;;;;;;;5007893;28;20256;-77
2023/03/23 01:54:28;;;;;;;3.20;1.97;;;;;;;;;;4990322;28;20191;-77
2023/03/23 01:56:59;;;;;;;3.07;1.80;;;;;;;;;;5025592;28;20178;-76
2023/03/23 01:59:26;;;;;;;6.70;3.13;;;;;;;;;;5004334;28;20574;-76
2023/03/23 02:02:12;;;;;;;10.83;4.50;;;;;;;;;;4992493;28;20236;-77
2023/03/23 02:04:41;;;;;;;8.20;3.20;;;;;;;;;;4975247;28;20197;-78
2023/03/23 02:07:08;;;;;;;4.13;2.47;;;;;;;;;;5013535;28;20220;-77
2023/03/23 02:09:34;;;;;;;2.90;1.80;;;;;;;;;;5010873;28;20202;-77
2023/03/23 02:12:00;;;;;;;2.73;1.80;;;;;;;;;;5021405;28;20214;-76
2023/03/23 02:14:27;;;;;;;2.43;1.73;;;;;;;;;;5021007;28;20179;-75
2023/03/23 02:16:56;;;;;;;1.97;1.47;;;;;;;;;;5039271;28;20801;-76
2023/03/23 02:19:31;;;;;;;2.70;1.40;;;;;;;;;;5011971;28;20195;-76
2023/03/23 02:22:06;;;;;;;1.83;1.43;;;;;;;;;;5009648;28;20178;-78
2023/03/23 02:24:42;;;;;;;1.37;1.27;;;;;;;;;;5010506;28;20212;-76
2023/03/23 02:27:16;;;;;;;1.40;1.27;;;;;;;;;;5016049;28;20182;-77
2023/03/23 02:29:45;;;;;;;3.03;1.90;;;;;;;;;;5009009;28;20221;-76
2023/03/23 02:32:30;;;;;;;4.13;1.77;;;;;;;;;;5010246;28;20258;-75
2023/03/23 02:35:02;;;;;;;1.40;1.30;;;;;;;;;;5019834;28;20225;-77
2023/03/23 02:37:31;;;;;;;2.13;1.70;;;;;;;;;;5023204;28;20163;-78
2023/03/23 02:40:13;;;;;;;2.20;1.50;;;;;;;;;;5010641;28;20580;-77
2023/03/23 02:42:42;;;;;;;2.07;1.70;;;;;;;;;;5013685;28;20269;-77
2023/03/23 02:45:10;;;;;;;2.20;1.60;;;;;;;;;;5027823;28;20575;-77
2023/03/23 02:47:38;;;;;;;4.23;1.60;;;;;;;;;;5033580;28;20185;-78
2023/03/23 02:50:06;;;;;;;3.67;1.67;;;;;;;;;;5028976;28;20477;-75
2023/03/23 02:52:33;;;;;;;2.97;1.80;;;;;;;;;;4992063;28;20245;-74
2023/03/23 02:55:00;;;;;;;2.23;1.80;;;;;;;;;;5009229;28;20195;-77
2023/03/23 02:57:27;;;;;;;1.50;1.40;;;;;;;;;;4994313;28;20179;-77
2023/03/23 02:59:55;;;;;;;4.00;1.97;;;;;;;;;;4986619;28;20200;-78
2023/03/23 03:02:22;;;;;;;1.97;1.53;;;;;;;;;;5008524;28;20221;-77
2023/03/23 03:04:54;;;;;;;2.83;1.70;;;;;;;;;;5022740;28;20179;-77
2023/03/23 03:07:35;;;;;;;4.43;2.00;;;;;;;;;;5025293;28;20183;-77
2023/03/23 03:10:21;;;;;;;2.43;1.70;;;;;;;;;;5024218;28;20206;-75
2023/03/23 03:12:53;;;;;;;2.53;1.80;;;;;;;;;;5013412;28;20213;-74
2023/03/23 03:15:26;;;;;;;2.73;1.70;;;;;;;;;;5028581;28;20197;-74
2023/03/23 03:17:56;;;;;;;5.07;2.57;;;;;;;;;;5014336;28;20182;-74
2023/03/23 03:20:25;;;;;;;3.13;1.87;;;;;;;;;;5013483;28;20301;-74
2023/03/23 03:22:52;;;;;;;3.27;1.70;;;;;;;;;;4994124;28;20182;-74
2023/03/23 03:25:20;;;;;;;2.00;1.63;;;;;;;;;;4991235;28;20877;-75
2023/03/23 03:27:49;;;;;;;1.83;1.60;;;;;;;;;;5010804;28;20178;-73
2023/03/23 03:30:23;;;;;;;2.60;1.90;;;;;;;;;;5010043;28;20224;-74
2023/03/23 03:32:53;;;;;;;4.23;2.20;;;;;;;;;;5005964;28;20658;-75
2023/03/23 03:35:21;;;;;;;3.83;2.13;;;;;;;;;;5005549;28;20190;-74
2023/03/23 03:37:48;;;;;;;2.40;1.60;;;;;;;;;;5008764;28;20749;-75
2023/03/23 03:40:16;;;;;;;2.83;1.80;;;;;;;;;;4999044;28;20206;-75
2023/03/23 03:42:44;;;;;;;3.07;1.93;;;;;;;;;;5009261;28;20178;-74
2023/03/23 03:45:11;;;;;;;3.23;2.20;;;;;;;;;;5014914;28;20198;-75
2023/03/23 03:47:38;;;;;;;2.00;1.60;;;;;;;;;;5004670;28;20703;-75
2023/03/23 03:50:05;;;;;;;2.50;1.77;;;;;;;;;;5006974;28;20225;-75
2023/03/23 03:52:32;;;;;;;2.27;2.03;;;;;;;;;;5025158;28;20209;-76
2023/03/23 03:54:58;;;;;;;3.40;1.70;;;;;;;;;;5001897;28;20210;-74
2023/03/23 03:57:26;;;;;;;3.00;1.93;;;;;;;;;;5009178;28;20185;-76
2023/03/23 04:00:14;;;;;;;2.53;1.70;;;;;;;;;;5026447;28;20213;-74
2023/03/23 04:02:53;;;;;;;1.67;1.50;;;;;;;;;;5021658;28;20190;-75
2023/03/23 04:05:28;;;;;;;3.93;2.17;;;;;;;;;;5015880;28;20775;-74
2023/03/23 04:08:01;;;;;;;2.23;1.80;;;;;;;;;;5011804;28;20202;-75
2023/03/23 04:10:28;;;;;;;3.10;1.93;;;;;;;;;;5025027;28;20202;-75
2023/03/23 04:12:55;;;;;;;2.77;1.90;;;;;;;;;;5006613;28;20206;-74
2023/03/23 04:15:40;;;;;;;1.80;1.70;;;;;;;;;;5022332;28;20227;-76
2023/03/23 04:18:06;;;;;;;3.53;1.90;;;;;;;;;;4995550;28;20609;-75
2023/03/23 04:20:34;;;;;;;4.50;3.90;;;;;;;;;;5004780;28;20365;-74
2023/03/23 04:23:01;;;;;;;2.60;2.40;;;;;;;;;;5006627;28;20719;-74
2023/03/23 04:25:32;;;;;;;2.50;2.23;;;;;;;;;;5012499;28;20193;-73
2023/03/23 04:28:00;;;;;;;2.97;1.90;;;;;;;;;;5007498;28;20257;-75
2023/03/23 04:30:31;;;;;;;2.47;1.93;;;;;;;;;;4999412;28;20206;-76
2023/03/23 04:33:03;;;;;;;3.47;1.80;;;;;;;;;;5022982;28;20206;-74
2023/03/23 04:35:30;;;;;;;3.97;1.80;;;;;;;;;;4989337;28;20224;-75
2023/03/23 04:38:08;;;;;;;2.20;2.00;;;;;;;;;;4991505;28;20186;-74
2023/03/23 04:40:38;;;;;;;3.60;2.10;;;;;;;;;;5005660;28;20301;-75
2023/03/23 04:43:21;;;;;;;4.20;1.80;;;;;;;;;;5000765;28;20195;-74
2023/03/23 04:46:09;;;;;;;2.83;1.93;;;;;;;;;;5005208;28;20190;-73
2023/03/23 04:48:38;;;;;;;2.43;1.90;;;;;;;;;;4990550;28;20178;-77
2023/03/23 04:51:13;;;;;;;2.43;2.00;;;;;;;;;;5010993;28;20190;-74
2023/03/23 04:53:42;;;;;;;2.07;1.70;;;;;;;;;;5013375;28;20199;-74
2023/03/23 04:56:09;;;;;;;2.60;2.10;;;;;;;;;;5006959;28;20194;-75
2023/03/23 04:58:43;;;;;;;2.27;1.93;;;;;;;;;;5002511;28;20186;-75
2023/03/23 05:01:28;;;;;;;2.30;2.10;;;;;;;;;;5025037;28;20293;-75
2023/03/23 05:04:08;;;;;;;2.20;2.00;;;;;;;;;;4989463;28;20837;-76
2023/03/23 05:06:34;;;;;;;3.33;2.10;;;;;;;;;;5015926;28;20276;-75
2023/03/23 05:09:07;;;;;;;3.40;1.90;;;;;;;;;;4991497;28;20207;-75
2023/03/23 05:11:33;;;;;;;2.17;1.97;;;;;;;;;;5003949;28;20573;-74
2023/03/23 05:14:00;;;;;;;2.33;2.10;;;;;;;;;;5006528;28;20221;-76
2023/03/23 05:16:28;;;;;;;3.47;2.40;;;;;;;;;;5000331;28;20182;-75
2023/03/23 05:18:57;;;;;;;3.93;2.20;;;;;;;;;;5002116;28;20200;-75
2023/03/23 05:21:23;;;;;;;2.33;2.10;;;;;;;;;;4992731;28;20189;-76
2023/03/23 05:23:54;;;;;;;2.27;2.07;;;;;;;;;;5016859;28;20183;-75
2023/03/23 05:26:23;;;;;;;3.03;2.20;;;;;;;;;;5003788;28;20561;-72
2023/03/23 05:28:52;;;;;;;2.83;2.20;;;;;;;;;;4989539;28;20231;-75
2023/03/23 05:31:24;;;;;;;2.73;2.50;;;;;;;;;;5012774;28;20193;-75
2023/03/23 05:33:51;;;;;;;2.90;2.20;;;;;;;;;;5000318;28;20587;-75
2023/03/23 05:36:27;;;;;;;2.37;2.13;;;;;;;;;;4996592;28;20179;-76
2023/03/23 05:39:26;;;;;;;3.03;2.20;;;;;;;;;;5014290;28;20290;-75
2023/03/23 05:42:06;;;;;;;3.47;2.60;;;;;;;;;;5011682;28;20210;-74
2023/03/23 05:44:45;;;;;;;3.27;2.20;;;;;;;;;;5006610;28;20214;-76
2023/03/23 05:47:12;;;;;;;3.17;2.50;;;;;;;;;;5012789;28;20182;-78
2023/03/23 05:49:41;;;;;;;3.47;2.40;;;;;;;;;;5010010;28;20230;-76
2023/03/23 05:52:10;;;;;;;3.30;2.63;;;;;;;;;;4993252;28;20214;-76
2023/03/23 05:54:36;;;;;;;2.53;2.27;;;;;;;;;;4994367;28;20746;-74
2023/03/23 05:57:03;;;;;;;2.70;2.30;;;;;;;;;;5030240;28;20186;-74
2023/03/23 05:59:49;;;;;;;2.53;1.90;;;;;;;;;;5008745;28;20191;-76
2023/03/23 06:02:23;;;;;;;2.30;2.10;;;;;;;;;;5010339;28;20179;-76
2023/03/23 06:04:49;;;;;;;2.53;2.30;;;;;;;;;;4993312;28;20380;-76
2023/03/23 06:07:21;;;;;;;3.83;3.00;;;;;;;;;;5028967;28;20800;-77
2023/03/23 06:09:56;;;;;;;3.83;2.80;;;;;;;;;;4995397;28;20206;-76
2023/03/23 06:12:25;;;;;;;4.33;2.73;;;;;;;;;;5028228;28;20209;-75
2023/03/23 06:15:10;;;;;;;4.80;2.40;;;;;;;;;;5021957;28;20649;-76
2023/03/23 06:17:56;;;;;;;3.30;2.37;;;;;;;;;;5021741;28;20513;-75
2023/03/23 06:20:26;;;;;;;3.27;2.47;;;;;;;;;;5012133;28;20198;-73
2023/03/23 06:22:53;;;;;;;2.67;2.37;;;;;;;;;;5017578;28;20210;-76
2023/03/23 06:25:28;;;;;;;3.47;2.40;;;;;;;;;;4992942;28;20186;-74
2023/03/23 06:27:54;;;;;;;2.57;2.30;;;;;;;;;;5010549;28;20192;-75
2023/03/23 06:30:21;;;;;;;2.93;2.30;;;;;;;;;;5006044;28;20199;-75
2023/03/23 06:32:47;;;;;;;3.90;2.30;;;;;;;;;;5010043;28;20245;-74
2023/03/23 06:35:15;;;;;;;3.60;2.37;;;;;;;;;;5011334;28;20185;-76
2023/03/23 06:38:08;;;;;;;2.20;2.00;;;;;;;;;;4996976;28;20736;-76
2023/03/23 06:40:46;;;;;;;2.83;2.13;;;;;;;;;;5026937;28;20842;-76
2023/03/23 06:43:12;;;;;;;4.07;2.70;;;;;;;;;;5015360;28;20190;-77
2023/03/23 06:45:47;;;;;;;3.27;2.40;;;;;;;;;;4996091;28;20213;-75
2023/03/23 06:48:32;;;;;;;3.40;2.40;;;;;;;;;;5029140;28;20182;-79
2023/03/23 06:50:59;;;;;;;5.23;2.77;;;;;;;;;;5014659;28;20281;-76
2023/03/23 06:53:27;;;;;;;2.70;2.50;;;;;;;;;;4990165;28;20220;-76
2023/03/23 06:55:56;;;;;;;4.63;2.80;;;;;;;;;;5003917;28;20183;-77
2023/03/23 06:58:23;;;;;;;3.63;2.67;;;;;;;;;;5003293;28;20200;-76
2023/03/23 07:00:54;;;;;;;3.30;2.47;;;;;;;;;;5015377;28;20221;-76
2023/03/23 07:03:20;;;;;;;5.67;2.60;;;;;;;;;;4998840;28;20598;-77
2023/03/23 07:05:47;;;;;;;4.33;2.87;;;;;;;;;;4977851;28;20183;-76
2023/03/23 07:08:14;;;;;;;5.03;2.60;;;;;;;;;;5013586;28;21468;-76
2023/03/23 07:10:46;;;;;;;5.73;2.70;;;;;;;;;;5001520;28;20702;-75
2023/03/23 07:13:13;;;;;;;4.13;2.90;;;;;;;;;;5001051;28;20335;-76
2023/03/23 07:15:48;;;;;;;5.80;2.80;;;;;;;;;;5001598;28;20182;-77
2023/03/23 07:18:14;;;;;;;5.50;3.20;;;;;;;;;;5023049;28;20232;-75
2023/03/23 07:20:47;;;;;;;4.10;2.87;;;;;;;;;;5001500;28;20198;-75
2023/03/23 07:23:14;;;;;;;4.50;2.60;;;;;;;;;;5014384;28;20187;-75
2023/03/23 07:25:48;;;;;;;3.90;2.80;;;;;;;;;;5000639;28;20598;-76
2023/03/23 07:28:21;;;;;;;3.23;2.60;;;;;;;;;;5015905;28;20204;-76
2023/03/23 07:30:48;;;;;;;3.60;2.70;;;;;;;;;;5015534;28;20210;-76
2023/03/23 07:33:15;;;;;;;3.80;2.70;;;;;;;;;;5012012;28;20272;-78
2023/03/23 07:35:41;;;;;;;3.80;2.43;;;;;;;;;;4999783;28;20182;-79
2023/03/23 07:38:11;;;;;;;3.10;2.10;;;;;;;;;;5019811;28;20182;-79
2023/03/23 07:40:38;;;;;;;3.60;2.23;;;;;;;;;;5017117;28;20190;-78
2023/03/23 07:43:10;;;;;;;2.40;1.93;;;;;;;;;;4983943;28;20186;-80
2023/03/23 07:45:59;;;;;;;2.90;1.83;;;;;;;;;;4997546;28;20190;-77
2023/03/23 07:48:34;;;;;;;3.43;1.53;;;;;;;;;;4983513;28;20527;-78
2023/03/23 07:51:00;;;;;;;2.30;1.70;;;;;;;;;;5016225;28;20206;-78
2023/03/23 07:53:29;;;;;;;3.87;1.47;;;;;;;;;;5007317;28;20223;-79
2023/03/23 07:56:08;;;;;;;2.90;1.50;;;;;;;;;;5010214;28;20177;-79
2023/03/23 07:59:00;;;;;;;2.00;1.50;;;;;;;;;;4991745;28;20220;-79
2023/03/23 08:01:27;;;;;;;2.73;1.30;;;;;;;;;;5003233;28;20569;-79
2023/03/23 08:04:22;;;;;;;2.37;1.50;;;;;;;;;;5004063;28;20673;-77
2023/03/23 08:07:12;;;;;;;3.17;1.60;;;;;;;;;;5005645;28;20190;-75
2023/03/23 08:09:49;;;;;;;1.47;1.37;;;;;;;;;;5013647;28;20754;-76
2023/03/23 08:12:47;;;;;;;1.73;1.40;;;;;;;;;;5010922;28;20210;-77
2023/03/23 08:15:34;;;;;;;1.77;1.33;;;;;;;;;;5026845;28;20585;-77
2023/03/23 08:18:13;;;;;;;1.73;1.20;;;;;;;;;;4999436;28;20190;-78
2023/03/23 08:21:11;;;;;;;1.20;1.10;;;;;;;;;;4983749;28;20222;-75
2023/03/23 08:23:48;;;;;;;1.30;1.20;;;;;;;;;;5012965;28;20191;-77
2023/03/23 08:26:26;;;;;;;2.30;1.20;;;;;;;;;;5008345;28;20190;-75
2023/03/23 08:29:14;;;;;;;1.10;1.00;;;;;;;;;;5002027;28;20574;-77
2023/03/23 08:32:07;;;;;;;4.53;1.10;;;;;;;;;;4991276;28;20210;-77
2023/03/23 08:34:36;;;;;;;3.23;1.27;;;;;;;;;;4989153;28;20194;-76
2023/03/23 08:37:31;;;;;;;2.87;1.40;;;;;;;;;;4952825;28;20260;-77
2023/03/23 08:40:19;;;;;;;1.90;1.50;;;;;;;;;;5009603;28;20215;-76
2023/03/23 08:42:56;;;;;;;2.27;1.23;;;;;;;;;;4991959;28;20191;-75
2023/03/23 08:45:57;;;;;;;1.67;1.30;;;;;;;;;;5021883;28;20178;-76
2023/03/23 08:48:43;;;;;;;1.50;1.40;;;;;;;;;;5018297;28;20190;-76
2023/03/23 08:51:40;;;;;;;1.67;1.33;;;;;;;;;;5024710;28;20183;-74
2023/03/23 08:54:29;;;;;;;1.70;1.30;;;;;;;;;;5022184;28;20652;-76
2023/03/23 08:56:55;;;;;;;2.17;1.40;;;;;;;;;;5019384;28;20662;-76
2023/03/23 08:59:33;;;;;;;2.70;1.30;;;;;;;;;;5003434;28;20218;-75
2023/03/23 09:02:12;;;;;;;1.70;1.50;;;;;;;;;;5005052;28;20193;-77
2023/03/23 09:05:05;;;;;;;2.47;1.80;;;;;;;;;;5004638;28;20256;-76
2023/03/23 09:07:43;;;;;;;3.03;1.83;;;;;;;;;;5007117;28;20600;-76
2023/03/23 09:10:10;;;;;;;1.83;1.50;;;;;;;;;;5018134;28;20194;-78
2023/03/23 09:12:37;;;;;;;3.93;1.60;;;;;;;;;;5022891;28;20225;-76
2023/03/23 09:15:08;;;;;;;6.63;4.00;;;;;;;;;;5028744;28;20213;-77
2023/03/23 09:17:39;;;;;;;3.40;2.10;;;;;;;;;;5025266;28;20205;-77
2023/03/23 09:20:10;;;;;;;2.40;1.93;;;;;;;;;;5028952;28;20233;-77
2023/03/23 09:22:38;;;;;;;3.33;2.33;;;;;;;;;;4974890;28;20182;-78
2023/03/23 09:25:05;;;;;;;3.40;3.00;;;;;;;;;;5008324;28;20191;-77
2023/03/23 09:27:31;;;;;;;3.03;2.73;;;;;;;;;;4990741;28;20187;-78
2023/03/23 09:29:58;;;;;;;6.03;3.50;;;;;;;;;;5022647;28;20539;-78
2023/03/23 09:32:25;;;;;;;11.90;7.50;;;;;;;;;;5024922;28;20283;-76
2023/03/23 09:34:54;;;;;;;5.93;3.70;;;;;;;;;;5027311;28;20186;-78
2023/03/23 09:37:21;;;;;;;4.33;2.80;;;;;;;;;;5027017;28;20713;-78
2023/03/23 09:39:48;;;;;;;4.33;2.80;;;;;;;;;;5030717;28;20214;-77
2023/03/23 09:42:17;;;;;;;3.87;1.90;;;;;;;;;;5026205;28;20186;-77
2023/03/23 09:44:51;;;;;;;1.90;1.70;;;;;;;;;;5025820;28;20332;-77
2023/03/23 09:47:28;;;;;;;4.87;2.33;;;;;;;;;;5008241;28;20622;-75
2023/03/23 09:49:58;;;;;;;3.67;3.03;;;;;;;;;;5009214;28;20237;-76
2023/03/23 09:52:30;;;;;;;3.97;1.70;;;;;;;;;;5008637;28;20292;-74
2023/03/23 09:54:56;;;;;;;3.20;1.43;;;;;;;;;;5005772;28;20282;-73
2023/03/23 09:57:26;;;;;;;3.67;1.40;;;;;;;;;;5021861;28;20167;-73
2023/03/23 10:00:19;;;;;;;2.73;1.20;;;;;;;;;;5019953;28;20223;-74
2023/03/23 10:03:07;;;;;;;2.90;1.10;;;;;;;;;;4998456;28;20207;-74
2023/03/23 10:05:37;;;;;;;1.33;1.03;;;;;;;;;;4992298;28;20214;-75
2023/03/23 10:08:14;;;;;;;1.10;1.00;;;;;;;;;;5005084;28;20208;-74
2023/03/23 10:11:00;;;;;;;1.10;1.00;;;;;;;;;;4990088;28;20441;-75
2023/03/23 10:13:35;;;;;;;1.50;1.10;;;;;;;;;;5005640;28;20995;-74
2023/03/23 10:16:03;;;;;;;1.40;1.13;;;;;;;;;;5026316;28;21498;-75
2023/03/23 10:18:44;;;;;;;2.00;1.10;;;;;;;;;;5028679;28;20174;-74
2023/03/23 10:21:18;;;;;;;1.60;1.20;;;;;;;;;;5026124;28;20185;-77
2023/03/23 10:23:50;;;;;;;2.23;1.30;;;;;;;;;;5017896;28;20200;-73
2023/03/23 10:26:35;;;;;;;4.50;1.57;;;;;;;;;;5004566;28;20190;-74
2023/03/23 10:29:10;;;;;;;4.63;2.30;;;;;;;;;;5018178;28;20404;-77
2023/03/23 10:31:38;;;;;;;6.70;3.20;;;;;;;;;;5024947;28;20192;-73
2023/03/23 10:34:18;;;;;;;4.50;2.13;;;;;;;;;;5031491;28;20218;-73
2023/03/23 10:37:04;;;;;;;2.73;2.17;;;;;;;;;;5013038;28;20197;-73
2023/03/23 10:39:40;;;;;;;1.73;1.60;;;;;;;;;;5033928;28;20251;-74
2023/03/23 10:42:07;;;;;;;3.87;1.50;;;;;;;;;;5027480;28;20251;-72
2023/03/23 10:44:34;;;;;;;2.57;1.50;;;;;;;;;;5028104;28;20182;-74
2023/03/23 10:47:00;;;;;;;1.77;1.40;;;;;;;;;;5004410;28;20653;-74
2023/03/23 10:49:30;;;;;;;1.87;1.50;;;;;;;;;;5007517;28;20224;-74
2023/03/23 10:52:17;;;;;;;6.23;1.70;;;;;;;;;;5031823;28;20219;-73
2023/03/23 10:54:50;;;;;;;2.10;1.70;;;;;;;;;;5015761;28;20221;-73
2023/03/23 10:57:28;;;;;;;1.77;1.40;;;;;;;;;;5023807;28;20541;-74
2023/03/23 10:59:59;;;;;;;3.27;1.40;;;;;;;;;;5028197;28;20205;-74
2023/03/23 11:02:25;;;;;;;3.83;1.70;;;;;;;;;;5027652;28;20183;-73
2023/03/23 11:04:58;;;;;;;2.30;1.57;;;;;;;;;;5033325;28;20233;-72
2023/03/23 11:07:26;;;;;;;1.90;1.20;;;;;;;;;;5029086;28;20194;-73
2023/03/23 11:09:55;;;;;;;1.97;1.37;;;;;;;;;;5012775;28;20238;-73
2023/03/23 11:12:22;;;;;;;3.37;1.53;;;;;;;;;;5028730;28;20213;-73
2023/03/23 11:14:49;;;;;;;1.97;1.33;;;;;;;;;;5029240;28;20228;-73
2023/03/23 11:17:24;;;;;;;1.60;1.17;;;;;;;;;;5008750;28;20190;-76
2023/03/23 11:19:50;;;;;;;5.80;1.40;;;;;;;;;;5009260;28;20205;-75
2023/03/23 11:22:21;;;;;;;2.93;1.30;;;;;;;;;;5008349;28;20314;-76
2023/03/23 11:24:52;;;;;;;2.70;1.00;;;;;;;;;;5029196;28;20200;-73
2023/03/23 11:27:18;;;;;;;1.33;1.20;;;;;;;;;;5028198;28;20187;-74
2023/03/23 11:30:04;;;;;;;1.37;1.20;;;;;;;;;;5012338;28;20213;-72
2023/03/23 11:32:31;;;;;;;2.77;1.27;;;;;;;;;;5012212;28;20225;-76
2023/03/23 11:35:04;;;;;;;1.50;1.30;;;;;;;;;;5027785;28;20705;-75
2023/03/23 11:37:35;;;;;;;1.20;1.10;;;;;;;;;;5024853;28;20195;-75
2023/03/23 11:40:06;;;;;;;1.70;1.10;;;;;;;;;;5035208;28;20202;-75
2023/03/23 11:42:32;;;;;;;1.30;1.20;;;;;;;;;;5027281;28;20238;-73
2023/03/23 11:45:16;;;;;;;1.17;1.00;;;;;;;;;;4989186;28;20285;-72
2023/03/23 11:48:02;;;;;;;1.17;1.03;;;;;;;;;;5027977;28;20244;-73
2023/03/23 11:50:31;;;;;;;1.30;1.20;;;;;;;;;;5032627;28;20293;-71
2023/03/23 11:53:23;;;;;;;2.03;1.30;;;;;;;;;;5031536;28;20331;-73
2023/03/23 11:55:56;;;;;;;1.43;1.30;;;;;;;;;;5030253;28;20247;-73
2023/03/23 11:58:22;;;;;;;3.00;1.40;;;;;;;;;;5033078;28;20181;-73
2023/03/23 12:00:56;;;;;;;4.33;1.20;;;;;;;;;;5025659;28;20198;-73
2023/03/23 12:03:46;;;;;;;1.30;1.20;;;;;;;;;;5015706;28;20190;-73
2023/03/23 12:06:33;;;;;;;1.30;1.20;;;;;;;;;;5030592;28;20786;-72
2023/03/23 12:09:22;;;;;;;1.47;1.30;;;;;;;;;;5035278;28;20201;-73
2023/03/23 12:11:51;;;;;;;1.73;1.50;;;;;;;;;;5031244;28;20193;-73
2023/03/23 12:14:31;;;;;;;1.30;1.20;;;;;;;;;;5029254;28;20202;-74
2023/03/23 12:17:17;;;;;;;1.40;1.30;;;;;;;;;;5032636;28;20174;-73
2023/03/23 12:20:09;;;;;;;1.47;1.37;;;;;;;;;;5025033;28;20197;-73
2023/03/23 12:22:45;;;;;;;2.10;1.30;;;;;;;;;;5028782;28;20190;-73
2023/03/23 12:25:17;;;;;;;1.40;1.30;;;;;;;;;;5033686;28;20193;-73
2023/03/23 12:27:49;;;;;;;1.47;1.37;;;;;;;;;;5034276;28;20189;-73
2023/03/23 12:30:33;;;;;;;2.23;1.60;;;;;;;;;;5034789;28;20202;-73
2023/03/23 12:33:04;;;;;;;1.70;1.43;;;;;;;;;;5029551;28;20261;-73
2023/03/23 12:35:51;;;;;;;2.67;1.50;;;;;;;;;;5006357;28;20186;-73
2023/03/23 12:38:17;;;;;;;1.87;1.37;;;;;;;;;;4995668;28;20182;-73
2023/03/23 12:40:58;;;;;;;1.77;1.37;;;;;;;;;;5001899;28;21239;-73
2023/03/23 12:43:32;;;;;;;1.70;1.30;;;;;;;;;;5020426;28;20183;-79
2023/03/23 12:45:58;;;;;;;1.50;1.40;;;;;;;;;;5014067;28;20182;-78
2023/03/23 12:48:27;;;;;;;2.27;1.50;;;;;;;;;;5001370;28;20187;-76
2023/03/23 12:50:57;;;;;;;3.17;1.50;;;;;;;;;;5026061;28;20359;-76
2023/03/23 12:53:31;;;;;;;3.63;3.00;;;;;;;;;;5029327;28;20921;-77
2023/03/23 12:56:03;;;;;;;2.40;1.53;;;;;;;;;;4999234;28;20797;-77
2023/03/23 12:58:32;;;;;;;2.83;1.53;;;;;;;;;;5029593;28;20174;-77
2023/03/23 13:01:02;;;;;;;1.47;1.37;;;;;;;;;;5011744;28;20244;-78
2023/03/23 13:03:34;;;;;;;1.70;1.30;;;;;;;;;;5010435;28;20665;-76
2023/03/23 13:06:04;;;;;;;3.00;1.30;;;;;;;;;;5026570;28;20201;-78
2023/03/23 13:08:37;;;;;;;1.47;1.20;;;;;;;;;;5028794;28;20186;-76
2023/03/23 13:11:24;;;;;;;1.23;1.10;;;;;;;;;;4988162;28;20232;-77
2023/03/23 13:13:56;;;;;;;1.50;1.33;;;;;;;;;;4994371;28;20218;-75
2023/03/23 13:16:40;;;;;;;5.00;1.23;;;;;;;;;;5007936;28;20182;-75
2023/03/23 13:19:09;;;;;;;1.50;1.20;;;;;;;;;;5011054;28;20210;-76
2023/03/23 13:21:41;;;;;;;1.47;1.30;;;;;;;;;;5025074;28;20244;-77
2023/03/23 13:24:10;;;;;;;3.10;1.30;;;;;;;;;;5014566;28;20201;-78
2023/03/23 13:26:41;;;;;;;1.53;1.43;;;;;;;;;;5002224;28;20199;-76
2023/03/23 13:29:11;;;;;;;1.60;1.50;;;;;;;;;;4983591;28;20238;-75
2023/03/23 13:31:39;;;;;;;1.80;1.60;;;;;;;;;;5006896;28;20681;-76
2023/03/23 13:34:23;;;;;;;2.20;1.50;;;;;;;;;;5030075;28;20218;-82
2023/03/23 13:36:56;;;;;;;1.80;1.40;;;;;;;;;;5024985;28;20214;-78
2023/03/23 13:39:26;;;;;;;1.80;1.70;;;;;;;;;;5026542;28;20210;-79
2023/03/23 13:42:05;;;;;;;4.60;1.70;;;;;;;;;;5001536;28;20204;-79
2023/03/23 13:44:56;;;;;;;2.07;1.60;;;;;;;;;;5003177;28;20177;-79
2023/03/23 13:47:28;;;;;;;2.53;1.70;;;;;;;;;;4992466;28;20253;-77
2023/03/23 13:49:56;;;;;;;5.37;2.43;;;;;;;;;;5010514;28;20276;-79
2023/03/23 13:52:41;;;;;;;2.97;2.57;;;;;;;;;;5020565;28;20704;-79
2023/03/23 13:55:16;;;;;;;3.17;2.37;;;;;;;;;;5004721;28;20222;-79
2023/03/23 13:57:50;;;;;;;2.67;2.20;;;;;;;;;;5024836;28;20201;-79
2023/03/23 14:00:32;;;;;;;3.00;2.00;;;;;;;;;;5025918;28;20268;-79
2023/03/23 14:03:10;;;;;;;2.17;1.80;;;;;;;;;;4987523;28;20286;-79
2023/03/23 14:05:36;;;;;;;4.10;1.90;;;;;;;;;;4997773;28;20589;-79
2023/03/23 14:08:10;;;;;;;4.30;1.60;;;;;;;;;;5028836;28;20186;-80
2023/03/23 14:10:37;;;;;;;3.83;2.37;;;;;;;;;;5022543;28;20244;-79
2023/03/23 14:13:05;;;;;;;2.13;1.60;;;;;;;;;;5004518;28;20211;-78
2023/03/23 14:15:38;;;;;;;4.53;1.80;;;;;;;;;;4992092;28;20213;-79
2023/03/23 14:18:04;;;;;;;2.00;1.80;;;;;;;;;;5026282;28;20194;-79
2023/03/23 14:20:33;;;;;;;4.63;1.70;;;;;;;;;;5026533;28;20194;-79
2023/03/23 14:23:00;;;;;;;1.90;1.43;;;;;;;;;;5027182;28;20234;-78
2023/03/23 14:25:33;;;;;;;2.63;1.40;;;;;;;;;;5024254;28;20608;-79
2023/03/23 14:27:59;;;;;;;2.77;1.60;;;;;;;;;;5024557;28;20745;-79
2023/03/23 14:30:27;;;;;;;3.57;1.73;;;;;;;;;;4990678;28;20213;-79
2023/03/23 14:32:55;;;;;;;1.70;1.60;;;;;;;;;;5009683;28;20218;-81
2023/03/23 14:35:24;;;;;;;2.53;1.90;;;;;;;;;;5026668;28;20206;-80
2023/03/23 14:37:51;;;;;;;2.27;1.60;;;;;;;;;;4981783;28;20550;-80
2023/03/23 14:40:18;;;;;;;3.43;1.80;;;;;;;;;;5026186;28;20190;-80
2023/03/23 14:42:44;;;;;;;3.10;1.73;;;;;;;;;;5028888;28;20606;-80
2023/03/23 14:45:13;;;;;;;2.13;1.80;;;;;;;;;;5011375;28;20188;-80
2023/03/23 14:47:42;;;;;;;2.13;1.80;;;;;;;;;;5024295;28;20179;-80
2023/03/23 14:50:28;;;;;;;2.90;2.27;;;;;;;;;;4994751;28;20337;-80
2023/03/23 14:52:57;;;;;;;3.50;2.37;;;;;;;;;;5022750;28;20250;-80
2023/03/23 14:55:26;;;;;;;2.57;2.30;;;;;;;;;;5026868;28;20289;-79
2023/03/23 14:57:53;;;;;;;3.53;2.30;;;;;;;;;;5024948;28;20173;-79
2023/03/23 15:00:19;;;;;;;3.37;2.47;;;;;;;;;;5007847;28;20246;-78
2023/03/23 15:02:47;;;;;;;3.27;2.53;;;;;;;;;;5025750;28;20190;-79
2023/03/23 15:05:19;;;;;;;2.60;2.17;;;;;;;;;;4993311;28;20204;-80
2023/03/23 15:07:48;;;;;;;3.67;2.40;;;;;;;;;;5022773;28;20220;-80
2023/03/23 15:10:16;;;;;;;4.37;2.23;;;;;;;;;;5025660;28;20244;-80
2023/03/23 15:12:45;;;;;;;2.17;1.97;;;;;;;;;;5002858;28;20241;-79
2023/03/23 15:15:21;;;;;;;2.00;1.70;;;;;;;;;;5026622;28;20181;-80